createdAt,value
2018-03-30T00:00:06.633Z,16.17
2018-03-30T00:02:34.236Z,20.37
2018-03-30T00:05:01.848Z,18.63
2018-03-30T00:07:29.852Z,16.27
2018-03-30T00:09:57.695Z,18.67
2018-03-30T00:12:25.581Z,18.33
2018-03-30T00:14:53.312Z,18.23
2018-03-30T00:17:21.204Z,17.63
2018-03-30T00:19:48.901Z,18.53
2018-03-30T00:22:16.727Z,18.00
2018-03-30T00:24:44.392Z,18.70
2018-03-30T00:27:12.145Z,17.50
2018-03-30T00:29:39.803Z,20.27
2018-03-30T00:32:07.591Z,16.73
2018-03-30T00:34:35.228Z,17.77
2018-03-30T00:37:02.908Z,20.43
2018-03-30T00:39:30.800Z,18.50
2018-03-30T00:41:59.470Z,20.30
2018-03-30T00:44:27.923Z,18.70
2018-03-30T00:46:55.611Z,18.00
2018-03-30T00:49:24.063Z,20.50
2018-03-30T00:51:52.888Z,22.33
2018-03-30T00:54:21.418Z,20.17
2018-03-30T00:56:49.233Z,16.20
2018-03-30T00:59:18.035Z,22.20
2018-03-30T01:01:45.739Z,21.90
2018-03-30T01:04:13.496Z,19.30
2018-03-30T01:06:42.051Z,18.50
2018-03-30T01:09:09.866Z,18.80
2018-03-30T01:11:37.563Z,21.00
2018-03-30T01:14:05.265Z,20.63
2018-03-30T01:16:32.892Z,19.90
2018-03-30T01:19:00.605Z,21.87
2018-03-30T01:21:28.311Z,22.03
2018-03-30T01:23:55.968Z,21.60
2018-03-30T01:26:23.635Z,19.90
2018-03-30T01:28:51.933Z,20.10
2018-03-30T01:31:19.896Z,23.80
2018-03-30T01:33:47.563Z,20.60
2018-03-30T01:36:15.321Z,21.03
2018-03-30T01:38:43.906Z,21.90
2018-03-30T01:41:11.560Z,21.87
2018-03-30T01:43:39.434Z,24.00
2018-03-30T01:46:07.074Z,23.10
2018-03-30T01:48:34.700Z,21.10
2018-03-30T01:51:02.301Z,21.90
2018-03-30T01:53:29.921Z,23.93
2018-03-30T01:55:57.571Z,22.87
2018-03-30T01:58:25.282Z,21.27
2018-03-30T02:00:52.935Z,18.93
2018-03-30T02:03:20.636Z,22.20
2018-03-30T02:05:48.526Z,20.30
2018-03-30T02:08:16.167Z,19.70
2018-03-30T02:10:44.072Z,22.07
2018-03-30T02:13:11.784Z,20.15
2018-03-30T02:15:39.570Z,21.47
2018-03-30T02:18:07.643Z,18.90
2018-03-30T02:20:35.411Z,20.47
2018-03-30T02:23:03.282Z,20.37
2018-03-30T02:25:30.947Z,21.00
2018-03-30T02:27:58.607Z,22.70
2018-03-30T02:30:26.319Z,22.00
2018-03-30T02:32:54.141Z,24.70
2018-03-30T02:35:21.862Z,23.23
2018-03-30T02:37:49.557Z,27.03
2018-03-30T02:40:17.224Z,24.73
2018-03-30T02:42:44.872Z,22.62
2018-03-30T02:45:12.523Z,23.93
2018-03-30T02:47:40.231Z,24.73
2018-03-30T02:50:08.079Z,22.93
2018-03-30T02:52:36.267Z,22.43
2018-03-30T02:55:04.005Z,22.97
2018-03-30T02:57:31.673Z,23.08
2018-03-30T02:59:59.289Z,26.37
2018-03-30T03:02:27.828Z,26.60
2018-03-30T03:04:55.592Z,24.97
2018-03-30T03:07:23.456Z,24.70
2018-03-30T03:09:51.533Z,24.33
2018-03-30T03:12:19.261Z,24.25
2018-03-30T03:14:46.875Z,23.98
2018-03-30T03:17:14.643Z,25.62
2018-03-30T03:19:42.373Z,23.38
2018-03-30T03:22:10.010Z,23.83
2018-03-30T03:24:38.433Z,22.90
2018-03-30T03:27:06.709Z,26.92
2018-03-30T03:29:34.358Z,25.70
2018-03-30T03:32:02.137Z,23.50
2018-03-30T03:34:29.801Z,23.73
2018-03-30T03:36:57.466Z,23.83
2018-03-30T03:39:25.127Z,24.70
2018-03-30T03:41:52.801Z,26.90
2018-03-30T03:44:20.458Z,26.25
2018-03-30T03:46:53.756Z,26.27
2018-03-30T03:49:21.514Z,24.17
2018-03-30T03:51:49.183Z,24.55
2018-03-30T03:54:16.791Z,26.50
2018-03-30T03:56:44.487Z,25.87
2018-03-30T03:59:12.094Z,28.92
2018-03-30T04:01:39.827Z,25.93
2018-03-30T04:04:07.456Z,27.73
2018-03-30T04:06:35.139Z,25.37
2018-03-30T04:09:02.852Z,25.73
2018-03-30T04:11:30.788Z,29.25
2018-03-30T04:13:58.399Z,27.87
2018-03-30T04:16:26.036Z,27.48
2018-03-30T04:18:53.658Z,24.37
2018-03-30T04:21:21.443Z,25.65
2018-03-30T04:23:49.060Z,24.87
2018-03-30T04:26:16.661Z,24.15
2018-03-30T04:28:44.281Z,22.25
2018-03-30T04:31:13.030Z,26.02
2018-03-30T04:33:40.925Z,26.80
2018-03-30T04:36:08.638Z,26.70
2018-03-30T04:38:36.312Z,27.35
2018-03-30T04:41:04.068Z,28.77
2018-03-30T04:43:31.846Z,26.85
2018-03-30T04:45:59.589Z,31.50
2018-03-30T04:48:27.470Z,27.95
2018-03-30T04:50:55.119Z,27.52
2018-03-30T04:53:23.003Z,27.15
2018-03-30T04:55:50.763Z,29.48
2018-03-30T04:58:18.503Z,29.00
2018-03-30T05:00:46.409Z,25.77
2018-03-30T05:03:14.368Z,29.40
2018-03-30T05:05:42.086Z,30.02
2018-03-30T05:08:10.012Z,33.78
2018-03-30T05:10:37.777Z,32.78
2018-03-30T05:13:05.407Z,30.85
2018-03-30T05:15:33.015Z,32.50
2018-03-30T05:18:00.753Z,32.03
2018-03-30T05:20:28.536Z,32.13
2018-03-30T05:22:56.192Z,29.80
2018-03-30T05:25:23.885Z,34.88
2018-03-30T05:27:51.641Z,28.95
2018-03-30T05:30:19.345Z,31.77
2018-03-30T05:32:47.140Z,27.98
2018-03-30T05:35:14.801Z,29.17
2018-03-30T05:37:42.658Z,28.90
2018-03-30T05:40:10.332Z,28.10
2018-03-30T05:42:38.207Z,27.98
2018-03-30T05:45:05.837Z,31.30
2018-03-30T05:47:33.494Z,32.20
2018-03-30T05:50:01.249Z,26.90
2018-03-30T05:52:28.896Z,29.08
2018-03-30T05:54:56.535Z,27.60
2018-03-30T05:57:24.218Z,24.37
2018-03-30T05:59:51.935Z,26.33
2018-03-30T06:02:19.682Z,29.05
2018-03-30T06:04:47.387Z,27.65
2018-03-30T06:07:15.064Z,28.20
2018-03-30T06:09:42.912Z,28.90
2018-03-30T06:12:10.608Z,27.03
2018-03-30T06:14:38.940Z,29.27
2018-03-30T06:17:06.725Z,29.00
2018-03-30T06:19:34.588Z,28.70
2018-03-30T06:22:02.417Z,30.67
2018-03-30T06:24:30.909Z,29.73
2018-03-30T06:26:58.803Z,28.90
2018-03-30T06:29:28.516Z,29.03
2018-03-30T06:31:56.123Z,27.10
2018-03-30T06:34:23.717Z,26.70
2018-03-30T06:36:51.483Z,26.10
2018-03-30T06:39:19.073Z,26.73
2018-03-30T06:41:46.716Z,27.40
2018-03-30T06:44:14.452Z,52.90
2018-03-30T06:46:42.360Z,48.27
2018-03-30T06:49:10.070Z,36.80
2018-03-30T06:51:37.792Z,27.43
2018-03-30T06:54:05.451Z,26.63
2018-03-30T06:56:33.070Z,26.90
2018-03-30T06:59:00.700Z,26.30
2018-03-30T07:01:28.344Z,26.83
2018-03-30T07:03:56.928Z,25.57
2018-03-30T07:06:24.688Z,28.13
2018-03-30T07:08:52.293Z,24.73
2018-03-30T07:11:20.020Z,25.47
2018-03-30T07:13:48.809Z,23.97
2018-03-30T07:16:16.697Z,22.00
2018-03-30T07:18:44.311Z,25.80
2018-03-30T07:21:12.211Z,25.20
2018-03-30T07:23:39.825Z,24.23
2018-03-30T07:26:07.511Z,23.27
2018-03-30T07:28:35.180Z,22.10
2018-03-30T07:31:02.849Z,20.30
2018-03-30T07:33:30.821Z,24.03
2018-03-30T07:35:58.695Z,20.57
2018-03-30T07:38:26.361Z,23.07
2018-03-30T07:40:53.984Z,22.20
2018-03-30T07:43:21.695Z,21.83
2018-03-30T07:45:49.434Z,21.20
2018-03-30T07:48:17.108Z,20.80
2018-03-30T07:50:44.719Z,21.13
2018-03-30T07:53:12.479Z,21.17
2018-03-30T07:55:40.079Z,19.23
2018-03-30T07:58:09.001Z,18.07
2018-03-30T08:00:36.751Z,18.70
2018-03-30T08:03:04.521Z,19.50
2018-03-30T08:05:33.751Z,18.17
2018-03-30T08:08:01.532Z,19.03
2018-03-30T08:10:30.279Z,18.00
2018-03-30T08:12:58.805Z,20.77
2018-03-30T08:15:26.861Z,18.60
2018-03-30T08:17:54.756Z,17.70
2018-03-30T08:20:23.916Z,17.63
2018-03-30T08:22:52.287Z,17.90
2018-03-30T08:25:20.131Z,17.27
2018-03-30T08:27:47.916Z,17.00
2018-03-30T08:30:15.788Z,17.83
2018-03-30T08:32:43.916Z,20.20
2018-03-30T08:35:12.343Z,19.90
2018-03-30T08:37:41.578Z,18.00
2018-03-30T08:40:10.172Z,19.57
2018-03-30T08:42:38.127Z,19.77
2018-03-30T08:45:06.393Z,18.70
2018-03-30T08:47:34.450Z,18.77
2018-03-30T08:50:02.424Z,16.83
2018-03-30T08:52:30.174Z,18.57
2018-03-30T08:54:58.759Z,15.90
2018-03-30T08:57:26.663Z,17.73
2018-03-30T08:59:54.346Z,15.47
2018-03-30T09:02:22.152Z,17.93
2018-03-30T09:04:49.967Z,17.80
2018-03-30T09:07:17.624Z,18.13
2018-03-30T09:09:45.268Z,16.23
2018-03-30T09:12:12.921Z,16.40
2018-03-30T09:14:40.757Z,16.87
2018-03-30T09:17:08.461Z,16.87
2018-03-30T09:19:36.093Z,16.57
2018-03-30T09:22:03.740Z,18.90
2018-03-30T09:24:31.355Z,17.33
2018-03-30T09:26:58.987Z,17.30
2018-03-30T09:29:26.583Z,17.20
2018-03-30T09:31:54.218Z,17.70
2018-03-30T09:34:22.411Z,15.63
2018-03-30T09:36:50.003Z,17.30
2018-03-30T09:39:18.535Z,16.20
2018-03-30T09:41:47.488Z,15.73
2018-03-30T09:44:15.138Z,16.10
2018-03-30T09:46:42.784Z,15.67
2018-03-30T09:49:10.411Z,15.03
2018-03-30T09:51:38.023Z,15.47
2018-03-30T09:54:05.654Z,16.80
2018-03-30T09:56:33.357Z,14.77
2018-03-30T09:59:01.081Z,14.90
2018-03-30T10:01:28.770Z,16.40
2018-03-30T10:03:56.696Z,15.47
2018-03-30T10:06:24.375Z,15.90
2018-03-30T10:08:52.843Z,16.10
2018-03-30T10:11:20.469Z,15.73
2018-03-30T10:13:48.165Z,17.40
2018-03-30T10:16:15.806Z,16.83
2018-03-30T10:18:43.423Z,18.40
2018-03-30T10:21:11.179Z,17.40
2018-03-30T10:23:38.822Z,16.40
2018-03-30T10:26:06.596Z,19.60
2018-03-30T10:28:34.207Z,17.83
2018-03-30T10:31:02.077Z,17.90
2018-03-30T10:33:29.894Z,17.00
2018-03-30T10:35:57.752Z,17.00
2018-03-30T10:38:25.617Z,18.60
2018-03-30T10:40:53.397Z,18.40
2018-03-30T10:43:21.082Z,17.73
2018-03-30T10:45:48.732Z,17.33
2018-03-30T10:48:16.376Z,16.77
2018-03-30T10:50:44.037Z,16.37
2018-03-30T10:53:11.951Z,15.60
2018-03-30T10:55:39.720Z,15.57
2018-03-30T10:58:07.376Z,17.13
2018-03-30T11:00:35.031Z,17.23
2018-03-30T11:03:02.717Z,16.20
2018-03-30T11:05:30.428Z,17.60
2018-03-30T11:07:58.077Z,17.33
2018-03-30T11:10:25.969Z,16.40
2018-03-30T11:12:53.838Z,18.00
2018-03-30T11:15:21.492Z,16.90
2018-03-30T11:17:49.092Z,18.07
2018-03-30T11:20:16.820Z,18.20
2018-03-30T11:22:44.492Z,16.70
2018-03-30T11:25:12.369Z,16.87
2018-03-30T11:27:40.004Z,17.30
2018-03-30T11:30:07.645Z,16.80
2018-03-30T11:32:35.755Z,15.67
2018-03-30T11:35:03.914Z,15.90
2018-03-30T11:37:31.607Z,14.63
2018-03-30T11:39:59.256Z,16.80
2018-03-30T11:42:26.992Z,14.33
2018-03-30T11:44:54.602Z,14.70
2018-03-30T11:47:22.347Z,15.40
2018-03-30T11:49:49.972Z,14.60
2018-03-30T11:52:17.760Z,14.77
2018-03-30T11:54:51.169Z,15.33
2018-03-30T11:57:18.833Z,13.90
2018-03-30T11:59:46.724Z,15.57
2018-03-30T12:02:14.340Z,14.93
2018-03-30T12:04:42.132Z,13.67
2018-03-30T12:07:09.986Z,14.33
2018-03-30T12:09:40.884Z,14.33
2018-03-30T12:12:08.548Z,13.37
2018-03-30T12:14:36.392Z,13.83
2018-03-30T12:17:04.100Z,13.10
2018-03-30T12:19:31.882Z,13.60
2018-03-30T12:21:59.577Z,13.90
2018-03-30T12:24:27.528Z,12.47
2018-03-30T12:26:55.421Z,14.23
2018-03-30T12:29:23.048Z,13.00
2018-03-30T12:31:51.367Z,13.70
2018-03-30T12:34:19.254Z,13.93
2018-03-30T12:36:46.926Z,14.63
2018-03-30T12:39:14.692Z,14.53
2018-03-30T12:41:42.390Z,13.87
2018-03-30T12:44:10.165Z,13.83
2018-03-30T12:46:37.815Z,13.43
2018-03-30T12:49:05.567Z,13.80
2018-03-30T12:51:33.350Z,12.57
2018-03-30T12:54:01.044Z,11.40
2018-03-30T12:56:28.672Z,12.20
2018-03-30T12:58:56.449Z,12.83
2018-03-30T13:01:24.302Z,12.37
2018-03-30T13:03:51.920Z,11.30
2018-03-30T13:06:19.587Z,11.90
2018-03-30T13:08:47.397Z,11.90
2018-03-30T13:11:15.045Z,11.90
2018-03-30T13:13:42.921Z,12.03
2018-03-30T13:16:10.582Z,10.70
2018-03-30T13:18:38.270Z,11.57
2018-03-30T13:21:06.130Z,11.77
2018-03-30T13:23:33.757Z,12.17
2018-03-30T13:26:01.540Z,12.50
2018-03-30T13:28:29.266Z,11.37
2018-03-30T13:30:57.103Z,10.90
2018-03-30T13:33:24.795Z,10.20
2018-03-30T13:35:53.019Z,9.70
2018-03-30T13:38:20.619Z,10.30
2018-03-30T13:40:48.243Z,8.40
2018-03-30T13:43:15.967Z,10.60
2018-03-30T13:45:45.678Z,9.90
2018-03-30T13:48:13.369Z,10.80
2018-03-30T13:50:55.073Z,10.00
2018-03-30T13:53:26.203Z,9.90
2018-03-30T13:55:54.792Z,10.27
2018-03-30T13:58:26.459Z,8.90
2018-03-30T14:04:11.731Z,10.40
2018-03-30T14:06:43.056Z,9.63
2018-03-30T14:09:15.790Z,9.07
2018-03-30T14:11:47.438Z,8.50
2018-03-30T14:14:15.136Z,8.57
2018-03-30T14:16:43.691Z,10.00
2018-03-30T14:19:16.493Z,7.97
2018-03-30T14:21:54.924Z,8.60
2018-03-30T14:24:24.349Z,8.63
2018-03-30T14:26:56.776Z,8.33
2018-03-30T14:29:27.988Z,7.20
2018-03-30T14:32:11.551Z,9.17
2018-03-30T14:34:43.592Z,9.70
2018-03-30T14:37:17.003Z,9.20
2018-03-30T14:39:46.036Z,7.90
2018-03-30T14:42:27.704Z,7.90
2018-03-30T14:45:04.290Z,8.13
2018-03-30T14:47:32.771Z,7.07
2018-03-30T14:50:05.013Z,7.23
2018-03-30T14:52:36.710Z,7.50
2018-03-30T14:55:05.220Z,8.33
2018-03-30T14:57:34.980Z,8.00
2018-03-30T15:00:13.585Z,7.90
2018-03-30T15:02:41.429Z,7.77
2018-03-30T15:05:12.099Z,8.37
2018-03-30T15:08:00.403Z,9.20
2018-03-30T15:10:30.560Z,9.77
2018-03-30T15:13:09.899Z,11.97
2018-03-30T15:15:55.218Z,9.97
2018-03-30T15:18:28.847Z,8.10
2018-03-30T15:21:12.221Z,9.00
2018-03-30T15:23:46.009Z,12.70
2018-03-30T15:26:20.401Z,10.20
2018-03-30T15:28:52.030Z,9.10
2018-03-30T15:31:22.528Z,12.10
2018-03-30T15:33:51.730Z,10.80
2018-03-30T15:36:47.620Z,10.60
2018-03-30T15:39:15.325Z,11.40
2018-03-30T15:41:45.850Z,12.20
2018-03-30T15:44:13.507Z,12.10
2018-03-30T15:49:48.260Z,12.07
2018-03-30T15:52:16.947Z,10.87
2018-03-30T15:54:44.690Z,13.60
2018-03-30T15:57:12.475Z,10.97
2018-03-30T15:59:40.261Z,11.30
2018-03-30T16:02:07.935Z,12.83
2018-03-30T16:04:35.875Z,13.20
2018-03-30T16:07:03.646Z,12.40
2018-03-30T16:09:33.285Z,12.30
2018-03-30T16:12:02.559Z,11.40
2018-03-30T16:14:30.418Z,10.97
2018-03-30T16:16:58.270Z,11.20
2018-03-30T16:19:25.557Z,11.40
2018-03-30T16:21:53.536Z,10.93
2018-03-30T16:24:20.601Z,11.77
2018-03-30T16:26:47.686Z,10.67
2018-03-30T16:29:14.799Z,11.00
2018-03-30T16:31:41.928Z,11.10
2018-03-30T16:34:09.077Z,10.90
2018-03-30T16:36:37.058Z,11.37
2018-03-30T16:39:04.142Z,11.63
2018-03-30T16:41:31.229Z,11.07
2018-03-30T16:43:58.369Z,12.50
2018-03-30T16:46:25.530Z,11.50
2018-03-30T16:48:52.632Z,9.83
2018-03-30T16:51:19.833Z,10.80
2018-03-30T16:53:46.910Z,11.67
2018-03-30T16:56:13.984Z,10.43
2018-03-30T16:58:41.081Z,11.17
2018-03-30T17:01:09.188Z,10.50
2018-03-30T17:03:36.422Z,11.60
2018-03-30T17:06:03.584Z,10.80
2018-03-30T17:08:30.708Z,9.70
2018-03-30T17:10:57.886Z,10.60
2018-03-30T17:13:25.065Z,9.80
2018-03-30T17:15:52.186Z,9.97
2018-03-30T17:18:19.254Z,10.23
2018-03-30T17:20:46.534Z,10.70
2018-03-30T17:23:14.125Z,10.47
2018-03-30T17:25:41.489Z,10.00
2018-03-30T17:28:08.741Z,10.30
2018-03-30T17:30:35.861Z,9.50
2018-03-30T17:33:03.266Z,10.00
2018-03-30T17:35:30.549Z,12.30
2018-03-30T17:37:57.901Z,11.60
2018-03-30T17:40:25.320Z,12.50
2018-03-30T17:42:52.670Z,12.43
2018-03-30T17:45:19.874Z,11.30
2018-03-30T17:47:47.721Z,11.33
2018-03-30T17:50:15.203Z,11.33
2018-03-30T17:52:43.530Z,11.03
2018-03-30T17:55:10.912Z,10.70
2018-03-30T17:57:38.236Z,9.80
2018-03-30T18:00:05.392Z,11.20
2018-03-30T18:02:32.543Z,10.40
2018-03-30T18:05:00.421Z,11.13
2018-03-30T18:07:27.981Z,11.70
2018-03-30T18:09:55.202Z,10.73
2018-03-30T18:12:23.100Z,11.17
2018-03-30T18:14:50.594Z,10.00
2018-03-30T18:17:18.520Z,10.20
2018-03-30T18:19:47.012Z,10.33
2018-03-30T18:22:17.782Z,9.10
2018-03-30T18:24:45.497Z,9.93
2018-03-30T18:27:13.381Z,9.87
2018-03-30T18:29:41.181Z,9.30
2018-03-30T18:32:08.930Z,9.87
2018-03-30T18:34:36.770Z,9.20
2018-03-30T18:37:05.426Z,9.50
2018-03-30T18:39:33.281Z,9.07
2018-03-30T18:42:01.516Z,8.23
2018-03-30T18:44:29.540Z,8.93
2018-03-30T18:46:57.449Z,8.70
2018-03-30T18:49:26.147Z,8.93
2018-03-30T18:51:54.520Z,9.40
2018-03-30T18:54:22.353Z,7.90
2018-03-30T18:56:50.434Z,8.23
2018-03-30T18:59:18.931Z,8.53
2018-03-30T19:01:46.906Z,8.90
2018-03-30T19:04:14.767Z,8.90
2018-03-30T19:06:42.514Z,7.80
2018-03-30T19:09:10.158Z,10.43
2018-03-30T19:11:37.963Z,7.80
2018-03-30T19:14:05.868Z,9.10
2018-03-30T19:16:33.806Z,8.50
2018-03-30T19:19:01.776Z,7.40
2018-03-30T19:21:29.710Z,8.27
2018-03-30T19:23:58.476Z,7.70
2018-03-30T19:26:26.292Z,8.77
2018-03-30T19:28:54.286Z,8.67
2018-03-30T19:31:23.581Z,8.37
2018-03-30T19:33:56.591Z,7.53
2018-03-30T19:36:33.060Z,8.20
2018-03-30T19:39:01.848Z,9.47
2018-03-30T19:41:30.935Z,8.57
2018-03-30T19:43:58.791Z,7.40
2018-03-30T19:46:27.762Z,8.87
2018-03-30T19:48:59.326Z,9.07
2018-03-30T19:51:29.432Z,8.80
2018-03-30T19:54:02.662Z,8.70
2018-03-30T19:56:31.651Z,9.30
2018-03-30T19:58:59.501Z,8.50
2018-03-30T20:01:27.580Z,9.30
2018-03-30T20:03:57.949Z,9.40
2018-03-30T20:06:26.666Z,9.33
2018-03-30T20:08:56.431Z,9.70
2018-03-30T20:11:24.321Z,10.03
2018-03-30T20:13:54.491Z,9.67
2018-03-30T20:16:22.895Z,9.67
2018-03-30T20:18:52.782Z,10.10
2018-03-30T20:21:22.623Z,9.43
2018-03-30T20:23:51.420Z,10.33
2018-03-30T20:26:21.612Z,10.47
2018-03-30T20:28:54.568Z,9.83
2018-03-30T20:31:44.078Z,9.43
2018-03-30T20:34:11.848Z,10.60
2018-03-30T20:36:41.852Z,10.77
2018-03-30T20:39:09.430Z,11.30
2018-03-30T20:41:37.176Z,10.13
2018-03-30T20:44:08.859Z,10.87
2018-03-30T20:46:36.949Z,10.83
2018-03-30T20:49:05.703Z,10.63
2018-03-30T20:51:33.768Z,10.40
2018-03-30T20:54:01.745Z,10.67
2018-03-30T20:56:28.916Z,9.90
2018-03-30T20:58:56.140Z,10.47
2018-03-30T21:01:23.397Z,10.37
2018-03-30T21:03:50.531Z,11.23
2018-03-30T21:06:17.835Z,10.63
2018-03-30T21:08:45.067Z,11.10
2018-03-30T21:11:12.202Z,9.50
2018-03-30T21:13:39.567Z,10.33
2018-03-30T21:16:06.819Z,10.43
2018-03-30T21:18:33.899Z,11.27
2018-03-30T21:21:01.235Z,11.23
2018-03-30T21:23:28.379Z,11.50
2018-03-30T21:25:55.847Z,10.93
2018-03-30T21:28:22.940Z,10.70
2018-03-30T21:30:50.023Z,10.80
2018-03-30T21:33:17.276Z,11.13
2018-03-30T21:35:44.411Z,12.23
2018-03-30T21:38:14.853Z,10.50
2018-03-30T21:40:41.974Z,10.87
2018-03-30T21:43:09.270Z,10.20
2018-03-30T21:45:36.422Z,9.60
2018-03-30T21:48:03.669Z,10.77
2018-03-30T21:50:30.825Z,10.93
2018-03-30T21:52:57.979Z,9.97
2018-03-30T21:55:25.094Z,11.93
2018-03-30T21:57:53.465Z,10.80
2018-03-30T22:00:21.169Z,10.83
2018-03-30T22:02:48.216Z,11.53
2018-03-30T22:05:15.332Z,10.70
2018-03-30T22:07:42.449Z,11.70
2018-03-30T22:10:09.580Z,11.27
2018-03-30T22:12:36.944Z,11.70
2018-03-30T22:15:04.140Z,10.63
2018-03-30T22:17:31.432Z,11.17
2018-03-30T22:19:58.518Z,12.30
2018-03-30T22:22:25.600Z,12.00
2018-03-30T22:24:52.805Z,12.13
2018-03-30T22:27:19.920Z,13.07
2018-03-30T22:29:47.640Z,11.80
2018-03-30T22:32:17.529Z,11.47
2018-03-30T22:34:44.672Z,12.13
2018-03-30T22:37:11.916Z,12.77
2018-03-30T22:39:39.078Z,11.93
2018-03-30T22:42:06.341Z,12.17
2018-03-30T22:44:33.439Z,11.33
2018-03-30T22:47:00.775Z,11.23
2018-03-30T22:49:27.880Z,12.40
2018-03-30T22:51:55.033Z,11.00
2018-03-30T22:54:22.093Z,12.30
2018-03-30T22:56:49.217Z,12.03
2018-03-30T22:59:16.334Z,10.97
2018-03-30T23:01:43.530Z,11.93
2018-03-30T23:04:10.709Z,12.67
2018-03-30T23:06:37.972Z,12.73
2018-03-30T23:09:05.209Z,13.03
2018-03-30T23:11:32.332Z,12.67
2018-03-30T23:13:59.410Z,11.67
2018-03-30T23:16:26.749Z,11.50
2018-03-30T23:18:53.809Z,12.00
2018-03-30T23:21:20.966Z,12.60
2018-03-30T23:23:48.298Z,11.63
2018-03-30T23:26:15.392Z,11.57
2018-03-30T23:28:43.225Z,12.80
2018-03-30T23:31:11.097Z,12.13
2018-03-30T23:33:38.291Z,12.60
2018-03-30T23:36:05.494Z,12.40
2018-03-30T23:38:32.571Z,12.03
2018-03-30T23:40:59.680Z,11.53
2018-03-30T23:43:27.092Z,11.77
2018-03-30T23:45:54.189Z,11.37
2018-03-30T23:48:21.448Z,12.73
2018-03-30T23:50:48.503Z,11.83
2018-03-30T23:53:15.599Z,12.53
2018-03-30T23:55:42.800Z,12.50
2018-03-30T23:58:09.919Z,12.20
